Time;durP1;ratioP1;P1;durP2;ratioP2;P2;SDS_P1;SDS_P2;PMS_P1;PMS_P2;Temp;Humidity;BMP_temperature;BMP_pressure;BME280_temperature;BME280_humidity;BME280_pressure;Samples;Min_cycle;Max_cycle;Signal;HPM_P1;HPM_P2
2022/04/03 00:01:45;;;;;;;40.05;23.77;;;;;;;;;;5032437;28;20111;-45
2022/04/03 00:04:10;;;;;;;40.40;23.95;;;;;;;;;;5032613;28;20014;-43
2022/04/03 00:06:36;;;;;;;42.50;25.15;;;;;;;;;;5032411;28;20017;-44
2022/04/03 00:09:02;;;;;;;40.75;23.98;;;;;;;;;;5032406;28;20102;-44
2022/04/03 00:11:28;;;;;;;36.70;21.65;;;;;;;;;;5032709;28;20028;-43
2022/04/03 00:13:53;;;;;;;40.13;23.67;;;;;;;;;;5032311;28;20038;-43
2022/04/03 00:16:18;;;;;;;38.08;23.35;;;;;;;;;;5032467;28;20085;-44
2022/04/03 00:18:44;;;;;;;41.35;23.67;;;;;;;;;;5032514;28;20180;-42
2022/04/03 00:21:11;;;;;;;38.63;23.05;;;;;;;;;;5032511;28;20100;-42
2022/04/03 00:23:36;;;;;;;40.08;23.63;;;;;;;;;;5032481;28;20018;-43
2022/04/03 00:26:01;;;;;;;43.75;23.98;;;;;;;;;;5032098;28;20025;-42
2022/04/03 00:28:30;;;;;;;44.58;25.02;;;;;;;;;;5033817;28;20019;-42
2022/04/03 00:30:55;;;;;;;44.47;25.17;;;;;;;;;;5035981;28;20037;-43
2022/04/03 00:33:21;;;;;;;44.20;24.48;;;;;;;;;;5035715;28;20477;-42
2022/04/03 00:35:46;;;;;;;45.50;25.23;;;;;;;;;;5035757;28;20448;-42
2022/04/03 00:38:12;;;;;;;44.83;25.13;;;;;;;;;;5035642;28;20014;-42
2022/04/03 00:40:37;;;;;;;45.42;25.55;;;;;;;;;;5035436;28;20026;-42
2022/04/03 00:43:03;;;;;;;48.28;26.55;;;;;;;;;;5035391;28;20041;-42
2022/04/03 00:45:28;;;;;;;46.40;25.70;;;;;;;;;;5035715;28;20026;-42
2022/04/03 00:47:54;;;;;;;44.85;24.92;;;;;;;;;;5034275;28;20480;-42
2022/04/03 00:50:20;;;;;;;47.95;25.98;;;;;;;;;;5035441;28;20023;-42
2022/04/03 00:52:45;;;;;;;46.97;25.42;;;;;;;;;;5035093;28;20037;-42
2022/04/03 00:55:11;;;;;;;46.45;26.75;;;;;;;;;;5035195;28;20046;-42
2022/04/03 00:57:36;;;;;;;47.50;25.95;;;;;;;;;;5033838;28;20036;-42
2022/04/03 01:00:03;;;;;;;45.17;26.40;;;;;;;;;;5035360;28;20500;-42
2022/04/03 01:02:30;;;;;;;48.85;27.58;;;;;;;;;;5035235;28;20026;-42
2022/04/03 01:04:55;;;;;;;42.67;26.17;;;;;;;;;;5035173;28;20009;-43
2022/04/03 01:07:21;;;;;;;42.00;24.90;;;;;;;;;;5035193;28;20025;-42
2022/04/03 01:09:46;;;;;;;42.75;25.70;;;;;;;;;;5035113;28;20029;-46
2022/04/03 01:12:11;;;;;;;45.95;26.35;;;;;;;;;;5034683;28;20021;-43
2022/04/03 01:14:38;;;;;;;48.60;28.13;;;;;;;;;;5035064;28;20477;-43
2022/04/03 01:17:03;;;;;;;46.47;27.25;;;;;;;;;;5035047;28;20032;-42
2022/04/03 01:19:29;;;;;;;47.20;26.80;;;;;;;;;;5035116;28;20022;-42
2022/04/03 01:21:54;;;;;;;44.58;25.02;;;;;;;;;;5034837;28;20456;-43
2022/04/03 01:24:20;;;;;;;41.53;24.77;;;;;;;;;;5034858;28;20024;-43
2022/04/03 01:26:46;;;;;;;43.25;25.58;;;;;;;;;;5034425;28;20079;-42
2022/04/03 01:29:11;;;;;;;41.70;25.40;;;;;;;;;;5035064;28;20017;-42
2022/04/03 01:31:36;;;;;;;46.05;25.45;;;;;;;;;;5034963;28;20029;-42
2022/04/03 01:34:02;;;;;;;42.80;25.70;;;;;;;;;;5034406;28;20051;-42
2022/04/03 01:36:27;;;;;;;46.50;25.48;;;;;;;;;;5034550;28;20024;-42
2022/04/03 01:38:52;;;;;;;39.38;24.58;;;;;;;;;;5034103;28;20053;-42
2022/04/03 01:41:18;;;;;;;39.53;24.00;;;;;;;;;;5034230;28;20025;-44
2022/04/03 01:43:43;;;;;;;39.17;23.27;;;;;;;;;;5034567;28;20022;-42
2022/04/03 01:46:08;;;;;;;39.92;23.63;;;;;;;;;;5033385;28;20460;-42
2022/04/03 01:48:34;;;;;;;44.33;24.65;;;;;;;;;;5034528;28;20021;-42
2022/04/03 01:50:59;;;;;;;43.28;25.40;;;;;;;;;;5034043;28;20049;-43
2022/04/03 01:53:25;;;;;;;42.22;24.65;;;;;;;;;;5033901;28;20037;-42
2022/04/03 01:55:57;;;;;;;39.60;23.60;;;;;;;;;;5034031;28;20033;-42
2022/04/03 01:58:23;;;;;;;42.67;23.65;;;;;;;;;;5034038;28;20026;-42
2022/04/03 02:00:49;;;;;;;39.50;23.02;;;;;;;;;;5034208;28;20028;-42
2022/04/03 02:03:14;;;;;;;40.50;24.00;;;;;;;;;;5034109;28;20029;-43
2022/04/03 02:05:39;;;;;;;41.30;23.00;;;;;;;;;;5034357;28;20107;-43
2022/04/03 02:08:05;;;;;;;38.85;22.50;;;;;;;;;;5033992;28;20448;-42
2022/04/03 02:10:31;;;;;;;35.30;20.98;;;;;;;;;;5033796;28;20023;-45
2022/04/03 02:12:56;;;;;;;30.77;18.15;;;;;;;;;;5033632;28;20037;-43
2022/04/03 02:15:21;;;;;;;24.77;14.60;;;;;;;;;;5033897;28;20021;-43
2022/04/03 02:17:46;;;;;;;20.20;12.20;;;;;;;;;;5033827;28;20028;-43
2022/04/03 02:20:12;;;;;;;20.25;12.50;;;;;;;;;;5033740;28;20151;-42
2022/04/03 02:22:37;;;;;;;19.90;11.40;;;;;;;;;;5033667;28;20025;-42
2022/04/03 02:25:04;;;;;;;19.33;11.85;;;;;;;;;;5033597;28;20018;-43
2022/04/03 02:27:29;;;;;;;19.45;11.18;;;;;;;;;;5033373;28;20033;-42
2022/04/03 02:29:55;;;;;;;21.60;13.70;;;;;;;;;;5033435;28;20381;-43
2022/04/03 02:32:21;;;;;;;22.10;12.35;;;;;;;;;;5033367;28;20048;-42
2022/04/03 02:34:46;;;;;;;22.05;12.18;;;;;;;;;;5033456;28;20028;-44
2022/04/03 02:37:14;;;;;;;20.75;12.73;;;;;;;;;;5033416;28;20381;-43
2022/04/03 02:39:41;;;;;;;20.15;12.38;;;;;;;;;;5033373;28;20027;-42
2022/04/03 02:42:06;;;;;;;23.08;13.50;;;;;;;;;;5033076;28;20105;-43
2022/04/03 02:44:32;;;;;;;24.52;13.38;;;;;;;;;;5033284;28;20100;-42
2022/04/03 02:46:57;;;;;;;23.67;12.68;;;;;;;;;;5033434;28;20024;-42
2022/04/03 02:49:22;;;;;;;23.10;13.27;;;;;;;;;;5033245;28;20097;-42
2022/04/03 02:51:48;;;;;;;22.95;13.43;;;;;;;;;;5032364;28;20096;-42
2022/04/03 02:54:13;;;;;;;22.80;13.07;;;;;;;;;;5032907;28;20045;-42
2022/04/03 02:56:38;;;;;;;19.88;12.43;;;;;;;;;;5032881;28;20091;-42
2022/04/03 02:59:04;;;;;;;24.15;13.32;;;;;;;;;;5033378;28;20017;-42
2022/04/03 03:01:29;;;;;;;22.30;13.02;;;;;;;;;;5033131;28;20033;-42
2022/04/03 03:03:55;;;;;;;21.92;12.57;;;;;;;;;;5033178;28;20104;-42
2022/04/03 03:06:20;;;;;;;22.85;13.93;;;;;;;;;;5033028;28;20018;-42
2022/04/03 03:08:45;;;;;;;25.25;14.48;;;;;;;;;;5033015;28;20024;-42
2022/04/03 03:11:11;;;;;;;24.98;13.52;;;;;;;;;;5032714;28;20521;-43
2022/04/03 03:13:36;;;;;;;24.38;13.98;;;;;;;;;;5032751;28;20029;-43
2022/04/03 03:16:02;;;;;;;23.65;14.10;;;;;;;;;;5033005;28;20022;-42
2022/04/03 03:18:27;;;;;;;19.85;12.27;;;;;;;;;;5032730;28;20013;-42
2022/04/03 03:20:52;;;;;;;22.75;13.32;;;;;;;;;;5032872;28;20099;-42
2022/04/03 03:23:18;;;;;;;25.58;14.60;;;;;;;;;;5032768;28;20385;-43
2022/04/03 03:25:45;;;;;;;24.05;13.65;;;;;;;;;;5032676;28;20080;-44
2022/04/03 03:28:10;;;;;;;23.58;14.05;;;;;;;;;;5032725;28;20116;-43
2022/04/03 03:30:36;;;;;;;22.85;13.93;;;;;;;;;;5032833;28;20032;-44
2022/04/03 03:33:01;;;;;;;25.30;13.90;;;;;;;;;;5032481;28;20492;-43
2022/04/03 03:35:26;;;;;;;22.67;13.13;;;;;;;;;;5032935;28;20021;-43
2022/04/03 03:37:52;;;;;;;22.60;13.13;;;;;;;;;;5032576;28;20025;-42
2022/04/03 03:40:17;;;;;;;22.33;13.00;;;;;;;;;;5032652;28;20025;-44
2022/04/03 03:42:43;;;;;;;24.77;13.70;;;;;;;;;;5032439;28;20480;-43
2022/04/03 03:45:12;;;;;;;23.52;13.23;;;;;;;;;;5032655;28;20025;-44
2022/04/03 03:47:37;;;;;;;21.23;13.57;;;;;;;;;;5032826;28;20025;-43
2022/04/03 03:50:02;;;;;;;22.15;13.38;;;;;;;;;;5032383;28;20040;-42
2022/04/03 03:52:28;;;;;;;25.98;13.43;;;;;;;;;;5032486;28;20069;-43
2022/04/03 03:54:54;;;;;;;24.65;13.93;;;;;;;;;;5032887;28;20053;-42
2022/04/03 03:57:19;;;;;;;23.60;13.95;;;;;;;;;;5032317;28;20052;-43
2022/04/03 03:59:44;;;;;;;23.67;14.05;;;;;;;;;;5032644;28;20021;-43
2022/04/03 04:02:09;;;;;;;26.73;14.43;;;;;;;;;;5033850;28;20060;-42
2022/04/03 04:04:35;;;;;;;24.17;14.27;;;;;;;;;;5036588;28;20022;-43
2022/04/03 04:07:00;;;;;;;27.20;14.73;;;;;;;;;;5036249;28;20041;-42
2022/04/03 04:09:25;;;;;;;24.38;14.40;;;;;;;;;;5036143;28;20028;-43
2022/04/03 04:11:51;;;;;;;25.30;14.30;;;;;;;;;;5035893;28;20049;-44
2022/04/03 04:14:16;;;;;;;24.95;14.55;;;;;;;;;;5036163;28;20465;-43
2022/04/03 04:16:42;;;;;;;24.17;13.38;;;;;;;;;;5036228;28;20018;-43
2022/04/03 04:19:08;;;;;;;23.25;14.40;;;;;;;;;;5036495;28;20029;-44
2022/04/03 04:21:33;;;;;;;24.23;12.73;;;;;;;;;;5034811;28;20523;-42
2022/04/03 04:23:58;;;;;;;27.92;14.43;;;;;;;;;;5035948;28;20464;-43
2022/04/03 04:26:25;;;;;;;25.35;14.02;;;;;;;;;;5035766;28;20029;-42
2022/04/03 04:28:51;;;;;;;25.70;14.98;;;;;;;;;;5035710;28;20437;-42
2022/04/03 04:31:17;;;;;;;24.33;13.60;;;;;;;;;;5035918;28;20461;-42
2022/04/03 04:33:42;;;;;;;25.17;13.48;;;;;;;;;;5035799;28;20034;-42
2022/04/03 04:36:07;;;;;;;22.48;13.07;;;;;;;;;;5034356;28;20029;-43
2022/04/03 04:38:33;;;;;;;26.25;14.70;;;;;;;;;;5035581;28;20033;-42
2022/04/03 04:40:58;;;;;;;22.60;13.45;;;;;;;;;;5035583;28;20032;-42
2022/04/03 04:43:23;;;;;;;24.05;14.23;;;;;;;;;;5035414;28;20024;-42
2022/04/03 04:45:49;;;;;;;26.33;14.68;;;;;;;;;;5035477;28;20056;-42
2022/04/03 04:48:14;;;;;;;23.90;13.90;;;;;;;;;;5035491;28;20067;-42
2022/04/03 04:50:39;;;;;;;25.50;13.88;;;;;;;;;;5035320;28;20369;-45
2022/04/03 04:53:05;;;;;;;25.70;13.98;;;;;;;;;;5034065;28;20072;-42
2022/04/03 04:55:30;;;;;;;23.80;14.02;;;;;;;;;;5035154;28;20160;-42
2022/04/03 04:57:56;;;;;;;24.70;14.10;;;;;;;;;;5035160;28;20014;-42
2022/04/03 05:00:24;;;;;;;25.08;13.77;;;;;;;;;;5035208;28;20106;-41
2022/04/03 05:02:49;;;;;;;28.67;15.10;;;;;;;;;;5035286;28;20049;-42
2022/04/03 05:05:17;;;;;;;26.65;14.50;;;;;;;;;;5035363;28;20088;-42
2022/04/03 05:07:42;;;;;;;24.95;14.18;;;;;;;;;;5035214;28;20026;-41
2022/04/03 05:10:08;;;;;;;29.52;15.20;;;;;;;;;;5035422;28;20021;-42
2022/04/03 05:12:36;;;;;;;25.27;14.90;;;;;;;;;;5034814;28;20029;-41
2022/04/03 05:15:02;;;;;;;24.27;14.27;;;;;;;;;;5032976;28;20095;-41
2022/04/03 05:17:28;;;;;;;23.20;13.38;;;;;;;;;;5035042;28;20049;-42
2022/04/03 05:19:56;;;;;;;22.48;13.77;;;;;;;;;;5034830;28;20075;-42
2022/04/03 05:22:23;;;;;;;25.63;14.60;;;;;;;;;;5034958;28;20577;-42
2022/04/03 05:24:49;;;;;;;22.27;13.55;;;;;;;;;;5034835;28;20104;-42
2022/04/03 05:27:14;;;;;;;20.63;13.13;;;;;;;;;;5034475;28;20100;-41
2022/04/03 05:29:40;;;;;;;24.10;13.70;;;;;;;;;;5034912;28;20105;-41
2022/04/03 05:32:07;;;;;;;23.85;13.20;;;;;;;;;;5034551;28;20021;-41
2022/04/03 05:34:32;;;;;;;24.38;13.35;;;;;;;;;;5034732;28;20029;-41
2022/04/03 05:36:57;;;;;;;27.90;14.07;;;;;;;;;;5034492;28;20060;-42
2022/04/03 05:39:23;;;;;;;25.05;13.65;;;;;;;;;;5034370;28;20068;-41
2022/04/03 05:41:53;;;;;;;26.40;14.45;;;;;;;;;;5034293;28;20495;-41
2022/04/03 05:44:18;;;;;;;22.63;13.43;;;;;;;;;;5034582;28;20014;-40
2022/04/03 05:46:44;;;;;;;27.05;14.82;;;;;;;;;;5034526;28;20109;-41
2022/04/03 05:49:09;;;;;;;24.08;13.60;;;;;;;;;;5034398;28;20049;-41
2022/04/03 05:51:34;;;;;;;21.88;13.05;;;;;;;;;;5034247;28;20523;-41
2022/04/03 05:53:59;;;;;;;24.30;14.50;;;;;;;;;;5033985;28;20041;-41
2022/04/03 05:56:27;;;;;;;27.13;14.45;;;;;;;;;;5033939;28;20018;-41
2022/04/03 05:58:53;;;;;;;27.23;15.07;;;;;;;;;;5034435;28;20025;-41
2022/04/03 06:01:18;;;;;;;26.45;15.40;;;;;;;;;;5034178;28;20032;-41
2022/04/03 06:03:43;;;;;;;23.38;13.35;;;;;;;;;;5034431;28;20029;-42
2022/04/03 06:06:09;;;;;;;27.17;14.63;;;;;;;;;;5034055;28;20025;-42
2022/04/03 06:08:34;;;;;;;22.70;13.52;;;;;;;;;;5034255;28;20025;-43
2022/04/03 06:10:59;;;;;;;21.85;14.20;;;;;;;;;;5032468;28;20045;-43
2022/04/03 06:13:25;;;;;;;24.45;14.00;;;;;;;;;;5033580;28;20029;-43
2022/04/03 06:15:50;;;;;;;20.90;12.95;;;;;;;;;;5034070;28;20388;-44
2022/04/03 06:18:16;;;;;;;25.95;14.48;;;;;;;;;;5032484;28;20055;-43
2022/04/03 06:20:42;;;;;;;27.92;14.95;;;;;;;;;;5033776;28;20021;-45
2022/04/03 06:23:14;;;;;;;31.67;15.18;;;;;;;;;;5033727;28;20488;-43
2022/04/03 06:25:39;;;;;;;35.67;16.58;;;;;;;;;;5033343;28;20025;-44
2022/04/03 06:28:05;;;;;;;30.73;17.08;;;;;;;;;;5033265;28;20080;-46
2022/04/03 06:30:30;;;;;;;34.38;18.52;;;;;;;;;;5033351;28;20079;-46
2022/04/03 06:32:55;;;;;;;27.30;15.68;;;;;;;;;;5033111;28;20033;-43
2022/04/03 06:35:21;;;;;;;23.95;14.57;;;;;;;;;;5033295;28;20049;-42
2022/04/03 06:37:46;;;;;;;22.40;13.02;;;;;;;;;;5032060;28;20116;-44
2022/04/03 06:40:13;;;;;;;22.08;13.20;;;;;;;;;;5033076;28;20026;-42
2022/04/03 06:42:39;;;;;;;20.30;13.68;;;;;;;;;;5017566;28;20052;-41
2022/04/03 06:45:04;;;;;;;21.55;13.65;;;;;;;;;;5020064;28;20484;-41
2022/04/03 06:47:30;;;;;;;24.20;16.05;;;;;;;;;;5032049;28;20076;-42
2022/04/03 06:49:56;;;;;;;20.98;13.48;;;;;;;;;;5031509;28;20108;-42
2022/04/03 06:52:21;;;;;;;22.58;14.02;;;;;;;;;;5030747;28;20803;-43
2022/04/03 06:54:48;;;;;;;21.33;13.48;;;;;;;;;;5031135;28;20049;-43
2022/04/03 06:57:14;;;;;;;22.15;12.80;;;;;;;;;;5031253;28;20052;-45
2022/04/03 06:59:39;;;;;;;20.35;13.15;;;;;;;;;;5031740;28;20029;-42
2022/04/03 07:02:05;;;;;;;21.67;12.90;;;;;;;;;;5032343;28;20417;-44
2022/04/03 07:04:30;;;;;;;20.85;12.43;;;;;;;;;;5032282;28;20059;-43
2022/04/03 07:06:55;;;;;;;17.80;11.57;;;;;;;;;;5032382;28;20388;-46
2022/04/03 07:09:21;;;;;;;20.85;12.65;;;;;;;;;;5031610;28;20043;-46
2022/04/03 07:11:46;;;;;;;20.70;11.75;;;;;;;;;;5032708;28;20025;-45
2022/04/03 07:14:11;;;;;;;16.98;11.38;;;;;;;;;;5030107;28;20076;-42
2022/04/03 07:16:37;;;;;;;17.33;12.07;;;;;;;;;;5033051;28;20028;-43
2022/04/03 07:19:02;;;;;;;17.08;10.95;;;;;;;;;;5032989;28;20056;-43
2022/04/03 07:21:27;;;;;;;18.60;11.50;;;;;;;;;;5033166;28;20026;-43
2022/04/03 07:23:53;;;;;;;16.98;11.68;;;;;;;;;;5032946;28;20461;-44
2022/04/03 07:26:18;;;;;;;17.98;11.43;;;;;;;;;;5032434;28;20040;-45
2022/04/03 07:28:44;;;;;;;18.85;10.43;;;;;;;;;;5032637;28;20026;-45
2022/04/03 07:31:09;;;;;;;20.13;10.73;;;;;;;;;;5032727;28;20033;-42
2022/04/03 07:33:35;;;;;;;19.83;11.07;;;;;;;;;;5032815;28;20033;-42
2022/04/03 07:36:00;;;;;;;19.65;11.50;;;;;;;;;;5031387;28;20120;-42
2022/04/03 07:38:26;;;;;;;18.63;11.13;;;;;;;;;;5036240;28;20025;-45
2022/04/03 07:40:52;;;;;;;15.30;10.20;;;;;;;;;;5036579;28;20022;-45
2022/04/03 07:43:17;;;;;;;18.00;11.00;;;;;;;;;;5036660;28;20024;-45
2022/04/03 07:45:43;;;;;;;19.88;12.18;;;;;;;;;;5036553;28;20022;-43
2022/04/03 07:48:09;;;;;;;19.33;10.95;;;;;;;;;;5036649;28;20022;-42
2022/04/03 07:50:34;;;;;;;21.75;12.68;;;;;;;;;;5036514;28;20091;-43
2022/04/03 07:52:59;;;;;;;18.52;11.32;;;;;;;;;;5036334;28;20093;-43
2022/04/03 07:55:25;;;;;;;18.00;11.63;;;;;;;;;;5036188;28;20057;-44
2022/04/03 07:57:50;;;;;;;16.85;10.82;;;;;;;;;;5036209;28;20515;-42
2022/04/03 08:00:16;;;;;;;16.38;11.30;;;;;;;;;;5036271;28;20021;-42
2022/04/03 08:02:42;;;;;;;18.80;12.00;;;;;;;;;;5036019;28;20011;-43
2022/04/03 08:05:08;;;;;;;18.55;11.45;;;;;;;;;;5035973;28;20473;-41
2022/04/03 08:07:40;;;;;;;20.17;12.50;;;;;;;;;;5036030;28;20128;-43
2022/04/03 08:10:08;;;;;;;21.45;12.52;;;;;;;;;;5034711;28;20025;-44
2022/04/03 08:12:37;;;;;;;18.85;12.20;;;;;;;;;;5035966;28;20132;-42
2022/04/03 08:15:06;;;;;;;20.75;13.27;;;;;;;;;;5036193;28;20040;-43
2022/04/03 08:17:32;;;;;;;20.30;12.52;;;;;;;;;;5035912;28;20034;-42
2022/04/03 08:19:57;;;;;;;20.67;13.02;;;;;;;;;;5036071;28;20057;-43
2022/04/03 08:22:22;;;;;;;20.73;12.30;;;;;;;;;;5034616;28;20041;-43
2022/04/03 08:24:49;;;;;;;20.67;12.23;;;;;;;;;;5035685;28;20503;-44
2022/04/03 08:27:15;;;;;;;20.08;12.50;;;;;;;;;;5035980;28;20514;-46
2022/04/03 08:29:40;;;;;;;23.00;13.30;;;;;;;;;;5034042;28;20017;-46
2022/04/03 08:32:06;;;;;;;19.73;12.48;;;;;;;;;;5033724;28;20033;-44
2022/04/03 08:34:31;;;;;;;20.33;11.85;;;;;;;;;;5033719;28;20115;-46
2022/04/03 08:36:57;;;;;;;19.60;12.10;;;;;;;;;;5033551;28;20443;-44
2022/04/03 08:39:22;;;;;;;19.60;12.35;;;;;;;;;;5032102;28;20544;-44
2022/04/03 08:41:48;;;;;;;22.15;13.57;;;;;;;;;;5033243;28;20496;-46
2022/04/03 08:44:13;;;;;;;20.83;12.95;;;;;;;;;;5034947;28;20023;-44
2022/04/03 08:46:40;;;;;;;18.80;11.20;;;;;;;;;;5035490;28;20518;-44
2022/04/03 08:49:06;;;;;;;19.80;12.90;;;;;;;;;;5034237;28;20060;-42
2022/04/03 08:51:32;;;;;;;16.95;11.80;;;;;;;;;;5036056;28;20480;-44
2022/04/03 08:53:58;;;;;;;21.48;12.90;;;;;;;;;;5034916;28;20123;-44
2022/04/03 08:56:23;;;;;;;19.02;11.80;;;;;;;;;;5033660;28;20461;-45
2022/04/03 08:58:48;;;;;;;21.05;12.88;;;;;;;;;;5035406;28;20021;-44
2022/04/03 09:01:16;;;;;;;20.08;11.48;;;;;;;;;;5035260;28;20029;-44
2022/04/03 09:03:41;;;;;;;19.00;13.10;;;;;;;;;;5034080;28;20096;-43
2022/04/03 09:06:17;;;;;;;21.52;11.90;;;;;;;;;;5035408;28;20154;-44
2022/04/03 09:08:43;;;;;;;20.10;12.68;;;;;;;;;;5034941;28;20384;-42
2022/04/03 09:11:08;;;;;;;19.75;11.85;;;;;;;;;;5035239;28;20022;-43
2022/04/03 09:13:34;;;;;;;15.00;10.57;;;;;;;;;;5033756;28;20104;-44
2022/04/03 09:16:00;;;;;;;18.70;11.75;;;;;;;;;;5034710;28;20086;-43
2022/04/03 09:18:44;;;;;;;18.15;11.40;;;;;;;;;;5034648;28;20033;-43
2022/04/03 09:21:20;;;;;;;15.02;10.20;;;;;;;;;;5034837;28;20457;-44
2022/04/03 09:24:04;;;;;;;16.85;10.05;;;;;;;;;;5030359;28;20029;-45
2022/04/03 09:26:30;;;;;;;15.15;10.00;;;;;;;;;;5027448;28;20033;-42
2022/04/03 09:29:05;;;;;;;13.32;9.00;;;;;;;;;;5028943;28;20032;-42
2022/04/03 09:31:30;;;;;;;12.52;9.25;;;;;;;;;;5033278;28;20383;-44
2022/04/03 09:34:00;;;;;;;15.00;9.57;;;;;;;;;;5033974;28;20041;-45
2022/04/03 09:36:28;;;;;;;13.77;9.75;;;;;;;;;;5034815;28;20017;-43
2022/04/03 09:39:03;;;;;;;13.45;9.38;;;;;;;;;;5033324;28;20428;-43
2022/04/03 09:41:28;;;;;;;12.15;8.05;;;;;;;;;;5034236;28;20422;-43
2022/04/03 09:43:54;;;;;;;14.43;9.95;;;;;;;;;;5034340;28;20108;-43
2022/04/03 09:46:22;;;;;;;14.70;9.85;;;;;;;;;;5034290;28;20022;-45
2022/04/03 09:48:47;;;;;;;15.05;9.88;;;;;;;;;;5034428;28;20021;-44
2022/04/03 09:51:19;;;;;;;12.77;9.50;;;;;;;;;;5034167;28;20071;-44
2022/04/03 09:53:49;;;;;;;13.23;9.05;;;;;;;;;;5033752;28;20497;-44
2022/04/03 09:56:15;;;;;;;15.35;10.50;;;;;;;;;;5034045;28;20026;-44
2022/04/03 09:58:53;;;;;;;12.15;9.27;;;;;;;;;;5034434;28;20471;-45
2022/04/03 10:01:35;;;;;;;13.63;9.70;;;;;;;;;;5031961;28;20025;-44
2022/04/03 10:04:18;;;;;;;14.88;9.73;;;;;;;;;;5033028;28;20488;-45
2022/04/03 10:06:44;;;;;;;12.32;9.15;;;;;;;;;;5032643;28;20110;-46
2022/04/03 10:09:15;;;;;;;12.02;8.75;;;;;;;;;;5032775;28;20084;-43
2022/04/03 10:11:41;;;;;;;12.80;9.30;;;;;;;;;;5032538;28;20017;-44
2022/04/03 10:14:08;;;;;;;12.43;8.52;;;;;;;;;;5033692;28;20040;-42
2022/04/03 10:16:34;;;;;;;12.23;8.00;;;;;;;;;;5032476;28;20097;-44
2022/04/03 10:18:59;;;;;;;13.18;7.45;;;;;;;;;;5033349;28;20029;-42
2022/04/03 10:21:29;;;;;;;11.95;8.27;;;;;;;;;;5033724;28;20057;-41
2022/04/03 10:23:58;;;;;;;9.25;8.00;;;;;;;;;;5033677;28;20159;-41
2022/04/03 10:26:23;;;;;;;13.35;8.25;;;;;;;;;;5033810;28;20030;-40
2022/04/03 10:28:52;;;;;;;12.80;8.65;;;;;;;;;;5033675;28;20366;-42
2022/04/03 10:31:17;;;;;;;9.15;7.05;;;;;;;;;;5033626;28;20029;-41
2022/04/03 10:33:48;;;;;;;10.00;7.22;;;;;;;;;;5033558;28;20041;-40
2022/04/03 10:36:13;;;;;;;10.05;6.35;;;;;;;;;;5032129;28;20346;-41
2022/04/03 10:38:47;;;;;;;9.27;6.03;;;;;;;;;;5033056;28;20487;-42
2022/04/03 10:41:27;;;;;;;10.05;5.97;;;;;;;;;;5032130;28;20132;-42
2022/04/03 10:44:10;;;;;;;9.35;5.50;;;;;;;;;;5032184;28;20029;-41
2022/04/03 10:46:56;;;;;;;7.07;5.18;;;;;;;;;;5033177;28;20052;-42
2022/04/03 10:49:31;;;;;;;9.93;5.60;;;;;;;;;;5028006;28;20075;-42
2022/04/03 10:52:02;;;;;;;7.78;4.80;;;;;;;;;;5032069;28;20025;-42
2022/04/03 10:54:31;;;;;;;6.22;4.90;;;;;;;;;;5031365;28;20112;-42
2022/04/03 10:57:15;;;;;;;6.90;5.18;;;;;;;;;;5031852;28;20021;-39
2022/04/03 10:59:40;;;;;;;10.00;5.75;;;;;;;;;;5032927;28;20120;-39
2022/04/03 11:02:14;;;;;;;7.85;5.05;;;;;;;;;;5033169;28;20104;-40
2022/04/03 11:04:40;;;;;;;6.97;4.88;;;;;;;;;;5033110;28;20113;-39
2022/04/03 11:07:12;;;;;;;7.05;5.05;;;;;;;;;;5031792;28;20112;-41
2022/04/03 11:09:41;;;;;;;6.20;4.95;;;;;;;;;;5033226;28;20105;-40
2022/04/03 11:12:06;;;;;;;9.73;5.47;;;;;;;;;;5032021;28;20030;-42
2022/04/03 11:14:57;;;;;;;10.02;5.90;;;;;;;;;;5031666;28;20037;-39
2022/04/03 11:17:41;;;;;;;6.57;5.18;;;;;;;;;;5032882;28;20064;-41
2022/04/03 11:20:07;;;;;;;10.80;6.10;;;;;;;;;;5032796;28;20033;-43
2022/04/03 11:22:32;;;;;;;6.82;5.15;;;;;;;;;;5031671;28;20083;-44
2022/04/03 11:24:59;;;;;;;7.70;5.10;;;;;;;;;;5033080;28;20033;-44
2022/04/03 11:27:24;;;;;;;8.90;6.63;;;;;;;;;;5032911;28;20017;-46
2022/04/03 11:29:51;;;;;;;9.25;5.72;;;;;;;;;;5032318;28;20029;-45
2022/04/03 11:32:17;;;;;;;9.13;5.97;;;;;;;;;;5032519;28;20064;-46
2022/04/03 11:34:43;;;;;;;18.20;10.50;;;;;;;;;;5032535;28;20064;-46
2022/04/03 11:37:10;;;;;;;19.25;12.63;;;;;;;;;;5031121;28;20349;-45
2022/04/03 11:39:40;;;;;;;20.35;12.60;;;;;;;;;;5032809;28;20389;-47
2022/04/03 11:42:06;;;;;;;23.52;13.38;;;;;;;;;;5032689;28;20033;-47
2022/04/03 11:44:34;;;;;;;30.73;16.35;;;;;;;;;;5031203;28;20116;-48
2022/04/03 11:47:00;;;;;;;22.17;15.05;;;;;;;;;;5031207;28;20025;-47
2022/04/03 11:49:28;;;;;;;20.70;13.75;;;;;;;;;;5031139;28;20461;-48
2022/04/03 11:52:05;;;;;;;21.80;13.45;;;;;;;;;;5031027;28;20051;-47
2022/04/03 11:54:30;;;;;;;21.63;14.45;;;;;;;;;;5032468;28;20087;-43
2022/04/03 11:57:00;;;;;;;24.25;15.50;;;;;;;;;;5032613;28;20084;-49
2022/04/03 11:59:26;;;;;;;28.33;15.15;;;;;;;;;;5031200;28;20388;-47
2022/04/03 12:01:51;;;;;;;24.27;14.27;;;;;;;;;;5032430;28;20026;-47
2022/04/03 12:04:18;;;;;;;24.27;14.75;;;;;;;;;;5032320;28;20495;-46
2022/04/03 12:06:44;;;;;;;25.75;14.02;;;;;;;;;;5030828;28;20078;-44
2022/04/03 12:09:10;;;;;;;24.30;15.05;;;;;;;;;;5032423;28;20377;-48
2022/04/03 12:11:40;;;;;;;22.75;14.60;;;;;;;;;;5032304;28;20346;-44
2022/04/03 12:14:06;;;;;;;19.70;13.13;;;;;;;;;;5032307;28;20100;-47
2022/04/03 12:16:31;;;;;;;20.85;13.77;;;;;;;;;;5032397;28;20021;-44
2022/04/03 12:18:57;;;;;;;20.73;14.13;;;;;;;;;;5032363;28;20479;-45
2022/04/03 12:21:42;;;;;;;23.73;14.60;;;;;;;;;;5032114;28;20017;-44
2022/04/03 12:24:08;;;;;;;22.80;15.05;;;;;;;;;;5034643;28;20504;-44
2022/04/03 12:26:34;;;;;;;22.35;14.57;;;;;;;;;;5035822;28;20017;-44
2022/04/03 12:29:00;;;;;;;23.75;14.25;;;;;;;;;;5034473;28;20021;-44
2022/04/03 12:31:30;;;;;;;24.20;13.85;;;;;;;;;;5035544;28;20043;-41
2022/04/03 12:34:11;;;;;;;24.02;14.40;;;;;;;;;;5035713;28;20073;-42
2022/04/03 12:36:47;;;;;;;25.95;14.02;;;;;;;;;;5034313;28;20033;-41
2022/04/03 12:39:31;;;;;;;22.83;14.13;;;;;;;;;;5034362;28;20480;-43
2022/04/03 12:42:07;;;;;;;23.15;15.30;;;;;;;;;;5035352;28;20021;-43
2022/04/03 12:44:32;;;;;;;23.50;13.57;;;;;;;;;;5036098;28;20010;-43
2022/04/03 12:46:58;;;;;;;24.65;15.18;;;;;;;;;;5035958;28;20025;-43
2022/04/03 12:49:23;;;;;;;23.85;14.57;;;;;;;;;;5035854;28;20036;-41
2022/04/03 12:51:49;;;;;;;27.50;15.02;;;;;;;;;;5035294;28;20100;-43
2022/04/03 12:54:18;;;;;;;25.77;15.15;;;;;;;;;;5035218;28;20503;-43
2022/04/03 12:59:36;;;;;;;24.17;13.85;;;;;;;;;;5035368;28;20384;-43
2022/04/03 13:02:04;;;;;;;23.17;14.85;;;;;;;;;;5035307;28;20460;-42
2022/04/03 13:04:30;;;;;;;21.15;13.65;;;;;;;;;;5035098;28;20026;-43
2022/04/03 13:06:55;;;;;;;23.80;14.65;;;;;;;;;;5035081;28;20021;-43
2022/04/03 13:09:21;;;;;;;24.80;14.27;;;;;;;;;;5035135;28;20039;-42
2022/04/03 13:11:50;;;;;;;25.38;13.88;;;;;;;;;;5035169;28;20026;-44
2022/04/03 13:14:16;;;;;;;;;;;;;;;;;;5035365;28;20041;-46
2022/04/03 13:16:42;;;;;;;32.15;14.35;;;;;;;;;;5034961;28;19905;-43
2022/04/03 13:19:07;;;;;;;22.35;13.45;;;;;;;;;;5034842;28;20024;-42
2022/04/03 13:21:36;;;;;;;20.42;14.40;;;;;;;;;;5034780;28;20105;-42
2022/04/03 13:24:02;;;;;;;21.40;13.25;;;;;;;;;;5034658;28;20120;-42
2022/04/03 13:26:28;;;;;;;24.30;14.55;;;;;;;;;;5034857;28;20029;-42
2022/04/03 13:28:53;;;;;;;23.23;14.57;;;;;;;;;;5034762;28;20068;-42
2022/04/03 13:31:18;;;;;;;23.42;14.48;;;;;;;;;;5034474;28;20423;-44
2022/04/03 13:33:44;;;;;;;23.17;13.65;;;;;;;;;;5034549;28;20469;-43
2022/04/03 13:36:09;;;;;;;21.38;13.25;;;;;;;;;;5033875;28;20037;-44
2022/04/03 13:38:34;;;;;;;21.33;12.52;;;;;;;;;;5034232;28;20052;-41
2022/04/03 13:41:00;;;;;;;19.75;13.23;;;;;;;;;;5034566;28;20028;-43
2022/04/03 13:43:25;;;;;;;23.65;14.55;;;;;;;;;;5034753;28;20029;-41
2022/04/03 13:45:56;;;;;;;21.45;13.38;;;;;;;;;;5034816;28;20090;-42
2022/04/03 13:48:23;;;;;;;20.00;12.52;;;;;;;;;;5033089;28;20021;-43
2022/04/03 13:50:49;;;;;;;17.67;12.35;;;;;;;;;;5034442;28;20430;-42
2022/04/03 13:53:14;;;;;;;20.88;11.77;;;;;;;;;;5033908;28;20120;-42
2022/04/03 13:55:39;;;;;;;19.38;12.02;;;;;;;;;;5034491;28;20054;-41
2022/04/03 13:58:05;;;;;;;21.65;11.63;;;;;;;;;;5034310;28;20021;-42
2022/04/03 14:00:30;;;;;;;21.45;12.48;;;;;;;;;;5032879;28;20025;-44
2022/04/03 14:02:56;;;;;;;19.25;11.63;;;;;;;;;;5032699;28;20369;-42
2022/04/03 14:05:21;;;;;;;22.00;11.52;;;;;;;;;;5033857;28;20111;-42
2022/04/03 14:07:46;;;;;;;19.85;11.02;;;;;;;;;;5033745;28;20540;-43
2022/04/03 14:10:12;;;;;;;15.30;10.20;;;;;;;;;;5033970;28;20029;-44
2022/04/03 14:12:38;;;;;;;20.23;11.13;;;;;;;;;;5033631;28;20471;-43
2022/04/03 14:15:04;;;;;;;20.50;12.63;;;;;;;;;;5033889;28;20108;-44
2022/04/03 14:17:29;;;;;;;17.77;11.45;;;;;;;;;;5032410;28;20112;-45
2022/04/03 14:19:55;;;;;;;14.25;11.05;;;;;;;;;;5033715;28;20471;-47
2022/04/03 14:22:21;;;;;;;24.58;11.55;;;;;;;;;;5032239;28;20040;-44